createdAt,value
2018-06-28T00:01:58.692Z,3.20
2018-06-28T00:04:28.664Z,3.00
2018-06-28T00:06:58.669Z,2.77
2018-06-28T00:09:28.128Z,3.00
2018-06-28T00:11:57.656Z,3.13
2018-06-28T00:14:27.074Z,2.90
2018-06-28T00:16:56.533Z,2.93
2018-06-28T00:19:25.922Z,3.50
2018-06-28T00:21:55.319Z,3.00
2018-06-28T00:24:24.817Z,3.40
2018-06-28T00:26:54.195Z,3.20
2018-06-28T00:29:23.276Z,3.00
2018-06-28T00:31:53.241Z,3.00
2018-06-28T00:34:23.230Z,3.40
2018-06-28T00:36:52.909Z,3.50
2018-06-28T00:39:21.965Z,3.60
2018-06-28T00:41:51.272Z,3.47
2018-06-28T00:44:20.614Z,4.17
2018-06-28T00:46:50.064Z,4.00
2018-06-28T00:49:20.248Z,4.03
2018-06-28T00:51:49.358Z,4.33
2018-06-28T00:54:18.317Z,3.90
2018-06-28T00:56:47.790Z,4.00
2018-06-28T00:59:17.395Z,4.50
2018-06-28T01:01:46.870Z,4.80
2018-06-28T01:04:16.320Z,4.23
2018-06-28T01:06:45.709Z,4.60
2018-06-28T01:09:15.083Z,3.83
2018-06-28T01:11:44.534Z,4.10
2018-06-28T01:14:14.051Z,4.10
2018-06-28T01:16:43.125Z,4.40
2018-06-28T01:19:13.148Z,4.10
2018-06-28T01:21:42.589Z,4.23
2018-06-28T01:24:12.358Z,4.00
2018-06-28T01:26:41.872Z,3.80
2018-06-28T01:29:12.397Z,4.30
2018-06-28T01:31:41.506Z,4.03
2018-06-28T01:34:10.719Z,3.83
2018-06-28T01:36:39.838Z,3.80
2018-06-28T01:39:11.167Z,4.00
2018-06-28T01:41:52.810Z,4.00
2018-06-28T01:44:22.296Z,3.90
2018-06-28T01:46:51.843Z,3.90
2018-06-28T01:49:21.232Z,4.00
2018-06-28T01:51:50.825Z,3.60
2018-06-28T01:54:20.297Z,3.87
2018-06-28T01:56:49.774Z,3.90
2018-06-28T01:59:19.180Z,4.17
2018-06-28T02:01:48.333Z,4.47
2018-06-28T02:04:18.203Z,4.07
2018-06-28T02:06:47.643Z,4.07
2018-06-28T02:09:17.545Z,4.07
2018-06-28T02:11:47.881Z,3.60
2018-06-28T02:14:16.974Z,3.57
2018-06-28T02:16:46.202Z,3.90
2018-06-28T02:19:15.514Z,3.87
2018-06-28T02:21:44.888Z,4.27
2018-06-28T02:24:13.860Z,4.43
2018-06-28T02:26:43.195Z,3.80
2018-06-28T02:29:13.312Z,4.07
2018-06-28T02:31:42.306Z,4.30
2018-06-28T02:34:11.612Z,4.20
2018-06-28T02:36:41.165Z,4.03
2018-06-28T02:39:10.452Z,3.90
2018-06-28T02:41:39.839Z,4.20
2018-06-28T02:44:09.872Z,4.30
2018-06-28T02:46:39.219Z,4.33
2018-06-28T02:49:09.024Z,4.50
2018-06-28T02:51:38.458Z,4.50
2018-06-28T02:54:08.111Z,4.33
2018-06-28T02:56:37.513Z,4.27
2018-06-28T02:59:07.002Z,3.97
2018-06-28T03:01:36.292Z,4.77
2018-06-28T03:04:05.918Z,4.13
2018-06-28T03:06:35.331Z,4.63
2018-06-28T03:09:07.102Z,4.60
2018-06-28T03:11:36.436Z,4.53
2018-06-28T03:14:06.289Z,4.70
2018-06-28T03:16:35.752Z,5.00
2018-06-28T03:19:06.427Z,4.93
2018-06-28T03:21:36.443Z,4.70
2018-06-28T03:24:05.791Z,5.67
2018-06-28T03:26:34.702Z,5.13
2018-06-28T03:29:03.633Z,5.10
2018-06-28T03:31:32.913Z,5.03
2018-06-28T03:34:02.251Z,4.53
2018-06-28T03:36:31.284Z,5.20
2018-06-28T03:39:00.248Z,5.57
2018-06-28T03:41:29.445Z,5.13
2018-06-28T03:43:59.353Z,5.70
2018-06-28T03:46:28.768Z,5.20
2018-06-28T03:48:58.116Z,5.40
2018-06-28T03:51:28.127Z,5.33
2018-06-28T03:53:57.549Z,5.10
2018-06-28T03:56:28.601Z,5.50
2018-06-28T03:58:58.129Z,5.20
2018-06-28T04:01:27.189Z,4.90
2018-06-28T04:03:56.666Z,5.60
2018-06-28T04:06:26.182Z,5.40
2018-06-28T04:08:55.601Z,5.23
2018-06-28T04:11:24.871Z,5.47
2018-06-28T04:13:54.280Z,5.50
2018-06-28T04:16:23.634Z,5.47
2018-06-28T04:18:52.611Z,5.17
2018-06-28T04:21:21.740Z,5.60
2018-06-28T04:23:51.128Z,5.20
2018-06-28T04:26:20.500Z,5.43
2018-06-28T04:28:49.706Z,5.30
2018-06-28T04:31:18.721Z,5.23
2018-06-28T04:33:47.613Z,4.80
2018-06-28T04:36:17.482Z,5.23
2018-06-28T04:38:46.624Z,5.00
2018-06-28T04:41:15.973Z,4.90
2018-06-28T04:43:45.281Z,5.20
2018-06-28T04:46:14.626Z,5.30
2018-06-28T04:48:43.944Z,5.47
2018-06-28T04:51:13.304Z,5.30
2018-06-28T04:53:42.612Z,5.30
2018-06-28T04:56:12.004Z,4.83
2018-06-28T04:58:41.060Z,5.30
2018-06-28T05:01:10.258Z,5.17
2018-06-28T05:03:39.545Z,5.10
2018-06-28T05:06:08.982Z,5.10
2018-06-28T05:08:38.925Z,4.70
2018-06-28T05:11:08.736Z,5.10
2018-06-28T05:13:38.418Z,4.47
2018-06-28T05:16:08.480Z,4.97
2018-06-28T05:18:38.287Z,4.77
2018-06-28T05:21:07.704Z,5.00
2018-06-28T05:23:37.532Z,4.73
2018-06-28T05:26:07.540Z,4.60
2018-06-28T05:28:36.889Z,4.60
2018-06-28T05:31:06.319Z,4.30
2018-06-28T05:33:35.571Z,4.47
2018-06-28T05:36:04.987Z,4.40
2018-06-28T05:38:34.373Z,4.40
2018-06-28T05:41:03.753Z,4.20
2018-06-28T05:43:33.196Z,4.13
2018-06-28T05:46:02.258Z,4.10
2018-06-28T05:48:31.969Z,4.10
2018-06-28T05:51:01.351Z,4.10
2018-06-28T05:53:30.759Z,3.83
2018-06-28T05:56:00.156Z,4.03
2018-06-28T05:58:29.514Z,4.30
2018-06-28T06:00:58.482Z,3.70
2018-06-28T06:03:27.731Z,3.83
2018-06-28T06:05:57.109Z,3.77
2018-06-28T06:08:26.229Z,3.50
2018-06-28T06:10:55.107Z,3.53
2018-06-28T06:13:23.976Z,3.73
2018-06-28T06:15:53.215Z,3.53
2018-06-28T06:18:22.597Z,3.80
2018-06-28T06:20:51.942Z,3.63
2018-06-28T06:23:21.264Z,3.50
2018-06-28T06:25:50.865Z,3.63
2018-06-28T06:28:20.265Z,3.70
2018-06-28T06:30:49.371Z,3.40
2018-06-28T06:33:18.765Z,3.17
2018-06-28T06:35:48.261Z,3.37
2018-06-28T06:38:18.191Z,3.33
2018-06-28T06:40:47.943Z,3.53
2018-06-28T06:43:18.011Z,3.47
2018-06-28T06:45:47.680Z,3.53
2018-06-28T06:48:17.095Z,3.40
2018-06-28T06:50:46.429Z,3.70
2018-06-28T06:53:16.509Z,3.20
2018-06-28T06:55:45.979Z,3.27
2018-06-28T06:58:15.244Z,3.07
2018-06-28T07:00:44.743Z,3.80
2018-06-28T07:03:14.099Z,3.50
2018-06-28T07:05:43.425Z,3.00
2018-06-28T07:08:22.907Z,2.80
2018-06-28T07:11:00.905Z,2.90
2018-06-28T07:13:36.505Z,3.03
2018-06-28T07:16:07.751Z,3.03
2018-06-28T07:18:37.323Z,3.40
2018-06-28T07:21:06.948Z,3.30
2018-06-28T07:23:36.374Z,3.37
2018-06-28T07:26:06.899Z,3.00
2018-06-28T07:28:36.463Z,3.10
2018-06-28T07:31:05.964Z,3.67
2018-06-28T07:33:35.236Z,3.03
2018-06-28T07:36:05.075Z,3.20
2018-06-28T07:38:34.103Z,3.50
2018-06-28T07:41:03.452Z,3.60
2018-06-28T07:43:33.718Z,3.27
2018-06-28T07:46:03.044Z,3.40
2018-06-28T07:48:32.533Z,3.00
2018-06-28T07:51:02.408Z,3.37
2018-06-28T07:53:31.512Z,3.23
2018-06-28T07:56:01.190Z,3.07
2018-06-28T07:58:30.552Z,2.87
2018-06-28T08:00:59.966Z,2.70
2018-06-28T08:03:29.497Z,3.00
2018-06-28T08:05:58.864Z,3.50
2018-06-28T08:08:28.477Z,3.10
2018-06-28T08:10:57.806Z,2.97
2018-06-28T08:13:27.496Z,2.70
2018-06-28T08:15:57.194Z,3.00
2018-06-28T08:18:27.280Z,3.43
2018-06-28T08:20:56.658Z,3.10
2018-06-28T08:29:50.581Z,3.10
2018-06-28T08:32:41.808Z,3.20
2018-06-28T08:35:11.287Z,3.07
2018-06-28T08:37:41.493Z,5.00
2018-06-28T08:40:10.855Z,3.13
2018-06-28T08:42:40.233Z,3.97
2018-06-28T08:45:09.617Z,2.97
2018-06-28T08:47:38.627Z,2.93
2018-06-28T08:50:07.556Z,2.90
2018-06-28T08:52:39.028Z,3.03
2018-06-28T08:55:08.834Z,3.23
2018-06-28T08:57:37.836Z,3.07
2018-06-28T09:00:08.315Z,2.67
2018-06-28T09:02:37.897Z,2.73
2018-06-28T09:05:07.145Z,2.50
2018-06-28T09:07:37.192Z,2.60
2018-06-28T09:10:06.655Z,2.70
2018-06-28T09:12:36.041Z,2.70
2018-06-28T09:15:05.520Z,2.57
2018-06-28T09:17:34.434Z,2.80
2018-06-28T09:20:04.624Z,2.70
2018-06-28T09:22:33.636Z,2.53
2018-06-28T09:25:08.048Z,2.37
2018-06-28T09:27:39.947Z,3.00
2018-06-28T09:30:11.976Z,2.93
2018-06-28T09:32:43.635Z,12.80
2018-06-28T09:35:18.298Z,2.83
2018-06-28T09:37:48.046Z,3.23
2018-06-28T09:40:18.328Z,2.67
2018-06-28T09:42:47.743Z,3.10
2018-06-28T09:45:17.355Z,2.87
2018-06-28T09:48:04.952Z,2.70
2018-06-28T09:50:34.328Z,3.10
2018-06-28T09:53:04.315Z,3.10
2018-06-28T09:55:33.624Z,2.70
2018-06-28T09:58:02.985Z,2.67
2018-06-28T10:00:37.508Z,3.23
2018-06-28T10:03:07.313Z,3.00
2018-06-28T10:05:36.640Z,2.90
2018-06-28T10:08:06.903Z,2.67
2018-06-28T10:10:36.321Z,2.73
2018-06-28T10:13:05.850Z,2.50
2018-06-28T10:15:35.480Z,3.67
2018-06-28T10:18:04.563Z,2.97
2018-06-28T10:20:33.793Z,3.20
2018-06-28T10:23:03.456Z,2.73
2018-06-28T10:25:32.793Z,2.93
2018-06-28T10:28:02.164Z,2.80
2018-06-28T10:30:31.719Z,2.57
2018-06-28T10:33:01.109Z,2.60
2018-06-28T10:35:30.447Z,2.90
2018-06-28T10:37:59.826Z,2.83
2018-06-28T10:40:29.263Z,2.50
2018-06-28T10:42:58.592Z,3.07
2018-06-28T10:45:27.974Z,2.57
2018-06-28T10:47:57.059Z,2.93
2018-06-28T10:50:26.275Z,3.00
2018-06-28T10:52:55.431Z,2.90
2018-06-28T10:55:24.299Z,2.90
2018-06-28T10:57:53.552Z,3.13
2018-06-28T11:00:22.986Z,2.33
2018-06-28T11:02:52.373Z,2.60
2018-06-28T11:05:21.732Z,2.60
2018-06-28T11:07:51.040Z,2.87
2018-06-28T11:10:20.504Z,2.50
2018-06-28T11:12:50.056Z,2.70
2018-06-28T11:15:19.465Z,2.70
2018-06-28T11:17:48.853Z,2.43
2018-06-28T11:20:18.017Z,2.60
2018-06-28T11:22:47.021Z,2.53
2018-06-28T11:25:15.944Z,2.40
2018-06-28T11:27:45.198Z,2.97
2018-06-28T11:30:14.790Z,2.67
2018-06-28T11:32:44.071Z,2.37
2018-06-28T11:35:14.039Z,2.87
2018-06-28T11:37:43.347Z,2.70
2018-06-28T11:40:12.658Z,2.33
2018-06-28T11:42:42.081Z,3.23
2018-06-28T11:45:11.102Z,2.73
2018-06-28T11:47:40.426Z,2.63
2018-06-28T11:50:09.905Z,2.30
2018-06-28T11:52:39.018Z,2.70
2018-06-28T11:55:07.978Z,2.60
2018-06-28T11:57:37.173Z,2.20
2018-06-28T12:00:07.278Z,2.13
2018-06-28T12:02:36.589Z,2.30
2018-06-28T12:05:06.114Z,2.33
2018-06-28T12:07:35.526Z,2.60
2018-06-28T12:10:05.291Z,2.67
2018-06-28T12:12:34.629Z,2.17
2018-06-28T12:15:04.231Z,2.80
2018-06-28T12:17:33.589Z,2.10
2018-06-28T12:20:03.977Z,2.53
2018-06-28T12:22:33.393Z,2.40
2018-06-28T12:25:02.859Z,2.30
2018-06-28T12:27:33.031Z,2.23
2018-06-28T12:30:02.567Z,2.60
2018-06-28T12:32:32.643Z,2.10
2018-06-28T12:35:02.693Z,2.20
2018-06-28T12:37:32.079Z,2.30
2018-06-28T12:40:01.409Z,2.40
2018-06-28T12:42:31.933Z,3.37
2018-06-28T12:45:01.558Z,2.67
2018-06-28T12:47:38.908Z,2.40
2018-06-28T12:50:08.480Z,2.10
2018-06-28T12:52:45.784Z,2.90
2018-06-28T12:55:16.456Z,2.40
2018-06-28T12:57:46.052Z,2.23
2018-06-28T13:00:16.020Z,2.23
2018-06-28T13:02:45.618Z,2.00
2018-06-28T13:05:15.889Z,2.40
2018-06-28T13:07:45.477Z,2.30
2018-06-28T13:10:15.618Z,2.30
2018-06-28T13:12:45.296Z,2.77
2018-06-28T13:15:15.572Z,2.23
2018-06-28T13:17:45.164Z,2.27
2018-06-28T13:20:14.559Z,2.80
2018-06-28T13:22:44.792Z,2.00
2018-06-28T13:25:14.262Z,2.83
2018-06-28T13:27:43.603Z,2.83
2018-06-28T13:30:12.657Z,2.30
2018-06-28T13:32:41.803Z,2.37
2018-06-28T13:35:10.847Z,2.10
2018-06-28T13:37:40.226Z,2.40
2018-06-28T13:40:09.763Z,2.20
2018-06-28T13:42:39.128Z,2.50
2018-06-28T13:45:08.719Z,2.20
2018-06-28T13:47:38.223Z,2.43
2018-06-28T13:50:07.215Z,2.50
2018-06-28T13:52:36.231Z,3.90
2018-06-28T13:55:05.543Z,2.20
2018-06-28T13:57:34.951Z,2.30
2018-06-28T14:00:04.834Z,2.30
2018-06-28T14:02:34.233Z,2.63
2018-06-28T14:05:03.613Z,2.30
2018-06-28T14:07:33.226Z,2.50
2018-06-28T14:10:03.184Z,2.47
2018-06-28T14:12:32.463Z,2.33
2018-06-28T14:15:01.839Z,2.13
2018-06-28T14:17:31.491Z,2.40
2018-06-28T14:20:00.898Z,2.20
2018-06-28T14:22:30.346Z,2.20
2018-06-28T14:24:59.839Z,2.50
2018-06-28T14:27:29.118Z,2.57
2018-06-28T14:29:58.416Z,2.40
2018-06-28T14:32:27.837Z,2.43
2018-06-28T14:34:57.031Z,2.10
2018-06-28T14:37:26.305Z,2.20
2018-06-28T14:39:55.747Z,2.67
2018-06-28T14:42:24.769Z,2.23
2018-06-28T14:44:53.790Z,2.30
2018-06-28T14:47:23.139Z,2.33
2018-06-28T14:49:52.151Z,2.70
2018-06-28T14:52:21.150Z,2.40
2018-06-28T14:54:50.275Z,2.47
2018-06-28T14:57:19.697Z,2.40
2018-06-28T14:59:49.690Z,2.40
2018-06-28T15:02:19.071Z,2.37
2018-06-28T15:04:49.177Z,2.50
2018-06-28T15:07:18.612Z,2.20
2018-06-28T15:09:48.244Z,2.57
2018-06-28T15:12:17.275Z,2.47
2018-06-28T15:14:46.233Z,2.50
2018-06-28T15:17:15.424Z,2.40
2018-06-28T15:19:44.556Z,2.50
2018-06-28T15:22:13.796Z,2.60
2018-06-28T15:24:43.397Z,2.27
2018-06-28T15:27:12.793Z,2.50
2018-06-28T15:29:42.346Z,2.50
2018-06-28T15:32:11.813Z,2.53
2018-06-28T15:34:41.187Z,2.37
2018-06-28T15:37:10.547Z,2.50
2018-06-28T15:39:40.006Z,2.10
2018-06-28T15:42:09.860Z,2.50
2018-06-28T15:44:39.344Z,2.30
2018-06-28T15:47:09.105Z,2.40
2018-06-28T15:49:38.465Z,2.40
2018-06-28T15:52:08.532Z,2.63
2018-06-28T15:54:37.898Z,2.47
2018-06-28T15:57:06.941Z,2.57
2018-06-28T15:59:36.159Z,2.60
2018-06-28T16:02:06.269Z,2.60
2018-06-28T16:04:35.708Z,3.03
2018-06-28T16:07:05.173Z,2.80
2018-06-28T16:09:34.528Z,2.40
2018-06-28T16:12:03.907Z,2.40
2018-06-28T16:14:33.252Z,2.37
2018-06-28T16:17:02.690Z,2.30
2018-06-28T16:19:32.071Z,2.67
2018-06-28T16:22:01.530Z,2.10
2018-06-28T16:24:30.632Z,2.30
2018-06-28T16:27:00.190Z,2.17
2018-06-28T16:29:29.705Z,2.37
2018-06-28T16:31:59.817Z,2.10
2018-06-28T16:34:29.241Z,2.20
2018-06-28T16:36:58.611Z,2.40
2018-06-28T16:39:28.129Z,2.20
2018-06-28T16:41:57.381Z,2.23
2018-06-28T16:44:26.395Z,2.53
2018-06-28T16:46:55.583Z,2.20
2018-06-28T16:49:25.099Z,2.57
2018-06-28T16:51:54.677Z,2.40
2018-06-28T16:54:23.721Z,2.30
2018-06-28T16:56:53.236Z,2.23
2018-06-28T16:59:22.720Z,2.17
2018-06-28T17:01:52.139Z,2.30
2018-06-28T17:04:21.654Z,2.43
2018-06-28T17:06:51.061Z,2.37
2018-06-28T17:09:20.384Z,2.60
2018-06-28T17:11:49.595Z,3.20
2018-06-28T17:14:19.324Z,2.90
2018-06-28T17:16:48.721Z,2.60
2018-06-28T17:19:18.123Z,2.50
2018-06-28T17:21:47.521Z,2.60
2018-06-28T17:24:17.553Z,2.50
2018-06-28T17:26:46.990Z,2.40
2018-06-28T17:29:16.989Z,2.57
2018-06-28T17:31:46.364Z,2.60
2018-06-28T17:34:16.371Z,2.77
2018-06-28T17:36:45.794Z,2.57
2018-06-28T17:39:15.228Z,2.47
2018-06-28T17:41:44.863Z,2.57
2018-06-28T17:44:13.897Z,2.47
2018-06-28T17:46:43.174Z,2.90
2018-06-28T17:49:12.487Z,2.40
2018-06-28T17:51:41.869Z,2.73
2018-06-28T17:54:10.948Z,2.10
2018-06-28T17:56:40.155Z,2.07
2018-06-28T17:59:09.171Z,2.70
2018-06-28T18:01:37.975Z,2.17
2018-06-28T18:04:07.254Z,2.40
2018-06-28T18:06:36.650Z,2.57
2018-06-28T18:09:08.395Z,2.53
2018-06-28T18:11:38.792Z,2.63
2018-06-28T18:14:08.597Z,2.30
2018-06-28T18:16:38.444Z,2.63
2018-06-28T18:19:08.207Z,2.30
2018-06-28T18:21:37.415Z,2.50
2018-06-28T18:24:06.938Z,3.20
2018-06-28T18:26:35.980Z,3.27
2018-06-28T18:29:05.307Z,2.63
2018-06-28T18:31:34.370Z,2.77
2018-06-28T18:34:03.634Z,3.10
2018-06-28T18:36:32.717Z,2.63
2018-06-28T18:39:02.648Z,2.70
2018-06-28T18:41:32.012Z,2.27
2018-06-28T18:44:01.357Z,2.77
2018-06-28T18:46:31.015Z,2.23
2018-06-28T18:49:00.427Z,2.70
2018-06-28T18:51:29.701Z,2.77
2018-06-28T18:53:59.027Z,2.50
2018-06-28T18:56:28.404Z,2.50
2018-06-28T18:58:59.506Z,2.30
2018-06-28T19:01:28.900Z,2.93
2018-06-28T19:03:57.928Z,2.57
2018-06-28T19:06:27.707Z,2.43
2018-06-28T19:08:58.019Z,2.70
2018-06-28T19:11:26.989Z,2.43
2018-06-28T19:14:02.356Z,2.73
2018-06-28T19:16:37.028Z,2.30
2018-06-28T19:19:07.638Z,2.60
2018-06-28T19:21:42.545Z,2.60
2018-06-28T19:24:11.649Z,2.73
2018-06-28T19:26:41.274Z,2.60
2018-06-28T19:29:16.613Z,2.27
2018-06-28T19:31:52.079Z,2.53
2018-06-28T19:34:21.743Z,2.73
2018-06-28T19:36:52.558Z,2.80
2018-06-28T19:39:29.020Z,3.00
2018-06-28T19:42:04.387Z,2.70
2018-06-28T19:44:35.887Z,2.97
2018-06-28T19:47:05.675Z,2.50
2018-06-28T19:49:41.842Z,2.50
2018-06-28T19:52:17.938Z,2.37
2018-06-28T19:54:47.404Z,2.70
2018-06-28T19:57:16.956Z,2.33
2018-06-28T19:59:47.426Z,2.67
2018-06-28T20:03:24.509Z,2.77
2018-06-28T20:08:36.795Z,2.90
2018-06-28T20:11:06.069Z,2.50
2018-06-28T20:13:40.656Z,2.60
2018-06-28T20:17:17.012Z,2.90
2018-06-28T20:19:52.902Z,2.53
2018-06-28T20:22:22.272Z,3.27
2018-06-28T20:24:51.787Z,2.63
2018-06-28T20:27:26.406Z,2.40
2018-06-28T20:30:00.971Z,2.60
2018-06-28T20:32:35.436Z,2.50
2018-06-28T20:35:04.476Z,2.70
2018-06-28T20:37:34.528Z,2.60
2018-06-28T20:40:04.586Z,2.87
2018-06-28T20:45:40.946Z,2.40
2018-06-28T20:54:21.912Z,3.00
2018-06-28T20:56:51.254Z,2.80
2018-06-28T20:59:20.320Z,2.70
2018-06-28T21:01:50.247Z,2.70
2018-06-28T21:04:19.903Z,3.00
2018-06-28T21:06:49.481Z,2.73
2018-06-28T21:09:18.513Z,3.47
2018-06-28T21:11:48.100Z,2.80
2018-06-28T21:14:17.464Z,2.33
2018-06-28T21:16:47.018Z,2.67
2018-06-28T21:19:16.540Z,3.10
2018-06-28T21:21:45.897Z,2.50
2018-06-28T21:24:15.484Z,2.60
2018-06-28T21:26:45.025Z,2.30
2018-06-28T21:29:14.378Z,2.50
2018-06-28T21:31:44.588Z,2.60
2018-06-28T21:34:14.081Z,2.53
2018-06-28T21:36:44.288Z,2.93
2018-06-28T21:39:14.389Z,3.00
2018-06-28T21:41:44.020Z,3.13
2018-06-28T21:44:13.379Z,3.00
2018-06-28T21:46:42.405Z,2.80
2018-06-28T21:49:11.324Z,2.37
2018-06-28T21:51:41.227Z,3.27
2018-06-28T21:54:11.486Z,2.70
2018-06-28T21:56:40.565Z,2.73
2018-06-28T21:59:09.822Z,2.70
2018-06-28T22:01:47.685Z,2.67
2018-06-28T22:04:16.742Z,2.57
2018-06-28T22:06:47.042Z,2.43
2018-06-28T22:09:16.945Z,3.07
2018-06-28T22:11:46.257Z,2.93
2018-06-28T22:14:17.022Z,2.90
2018-06-28T22:16:46.859Z,2.77
2018-06-28T22:19:16.376Z,2.57
2018-06-28T22:21:45.476Z,2.43
2018-06-28T22:24:14.712Z,2.70
2018-06-28T22:26:44.756Z,2.47
2018-06-28T22:29:15.079Z,3.00
2018-06-28T22:31:44.527Z,2.93
2018-06-28T22:34:14.007Z,2.70
2018-06-28T22:36:43.892Z,2.60
2018-06-28T22:39:13.988Z,2.60
2018-06-28T22:41:43.537Z,2.60
2018-06-28T22:44:12.953Z,2.37
2018-06-28T22:46:42.054Z,2.43
2018-06-28T22:49:11.269Z,2.67
2018-06-28T22:51:40.627Z,2.80
2018-06-28T22:54:10.576Z,2.70
2018-06-28T22:56:39.915Z,2.73
2018-06-28T22:59:09.288Z,2.73
2018-06-28T23:01:39.475Z,2.80
2018-06-28T23:04:08.881Z,2.73
2018-06-28T23:06:37.998Z,2.70
2018-06-28T23:09:08.002Z,2.80
2018-06-28T23:11:37.712Z,2.60
2018-06-28T23:14:07.048Z,2.90
2018-06-28T23:16:38.110Z,3.00
2018-06-28T23:19:07.573Z,2.87
2018-06-28T23:21:36.903Z,3.20
2018-06-28T23:24:06.332Z,2.80
2018-06-28T23:26:35.840Z,2.87
2018-06-28T23:29:04.767Z,2.97
2018-06-28T23:31:35.124Z,2.87
2018-06-28T23:34:04.326Z,2.93
2018-06-28T23:36:34.699Z,3.00
2018-06-28T23:39:03.871Z,2.97
2018-06-28T23:41:33.085Z,3.00
2018-06-28T23:44:03.881Z,2.80
2018-06-28T23:46:33.295Z,2.97
2018-06-28T23:49:03.230Z,2.70
2018-06-28T23:51:32.385Z,3.30
2018-06-28T23:54:02.311Z,2.73
2018-06-28T23:56:31.542Z,2.87
2018-06-28T23:59:03.207Z,3.20
